Meath Environmental Platform

Observations

Time Sensor AQI SAQ Temp °C Hum % Pres Pa CO μg/m³ H₂S μg/m³ NO μg/m³ NO₂ μg/m³ O₃ μg/m³ SO₂ μg/m³ CO₂e PPM VOC PPM PM1 μg/m³ PM2.5 μg/m³ PM4 μg/m³ PM10 μg/m³ TPS µm
Wednesday 12 August 2026
05:28 Trim Patrick St 2 18.4 72 38,460 0.06 1.05 1.34 14.24 53.86 0 7.14 10.74 11.81
05:27 Trim Market St 2 19 68 56,449 0.09 0 1.28 12.17 67.05 0 2.85 5.1 8.17
05:27 Trim Patrick St 2 18.4 72 38,460 0.05 0 1.4 10.58 53.33 0 6.29 9.31 10.24
05:26 Trim Market St 2 19.1 68 56,452 0.08 0 1.26 12.45 69.71 0 4.28 5.1 7.53
05:26 Trim Patrick St 2 18.4 72 38,460 0.06 2.33 1.3 18.68 51.73 0 7.14 11.45 12.59
05:25 Trim Market St 2 19 68 56,456 0.09 0 1.28 15.72 66.99 0 3.56 5.11 8.17
05:25 Trim Patrick St 2 18.4 72 38,460 0.05 1.7 1.41 11.19 58.55 0 6.29 10.77 11.85
05:24 Trim Patrick St 2 18.4 72 38,460 0.04 1.83 1.33 22.87 58.84 0 6.29 10.8 11.88
05:23 Trim Market St 2 19 68 56,468 0.09 0 1.28 12.37 68.19 0 2.85 4.13 6.89
05:23 Trim Patrick St 2 18.4 72 38,460 0.05 0.13 1.56 11.01 53.92 0 8 12.93 14.22
05:22 Trim Market St 2 19 68 56,463 0.08 0 1.28 12.55 69.49 0 5.7 7.55 12.64
05:22 Trim Patrick St 2 18.4 72 38,460 0.05 2.46 1.43 26.95 48.95 0 8 12.19 13.41
05:21 Trim Market St 2 19 68 56,465 0.09 0 1.28 12.11 70.31 0 3.56 5.11 8.17
05:21 Trim Patrick St 2 18.4 71 38,460 0.04 1.94 1.53 19.31 55.68 0 7.14 12.25 13.48
05:20 Trim Patrick St 2 18.3 72 38,460 0.05 0.66 1.44 12.21 51.24 0 8 11.48 12.63
05:19 Trim Market St 2 19 68 56,483 0.09 0 1.28 13.81 64.82 0 3.56 5.6 8.81
05:19 Trim Patrick St 2 18.4 72 38,460 0.05 0 1.32 11.46 50.53 0 8 11.48 12.63
05:18 Trim Market St 2 19 68 56,504 0.08 0 1.28 12.62 63.24 0 3.56 5.6 8.81
05:18 Trim Patrick St 2 18.4 72 38,460 0.03 0.6 1.28 11.46 60.27 0 8.86 13.66 15.03
05:17 Trim Market St 2 19 68 56,515 0.07 0 1.29 12.73 69.32 0 2.85 4.63 6.89